sensor_id;sensor_type;location;lat;lon;timestamp;P1;durP1;ratioP1;P2;durP2;ratioP2
75758;SDS011;64371;47.566;19.086;2022-12-15T08:48:10;65.23;;;27.83;;
75758;SDS011;64371;47.566;19.086;2022-12-15T08:51:13;68.20;;;27.77;;
75758;SDS011;64371;47.566;19.086;2022-12-15T08:54:16;71.82;;;29.25;;
75758;SDS011;64371;47.566;19.086;2022-12-15T08:57:20;69.85;;;29.27;;
75758;SDS011;64371;47.566;19.086;2022-12-15T09:00:22;64.80;;;28.45;;
75758;SDS011;64371;47.566;19.086;2022-12-15T09:03:24;68.23;;;28.73;;
75758;SDS011;64371;47.566;19.086;2022-12-15T09:06:30;69.72;;;29.48;;
75758;SDS011;64371;47.566;19.086;2022-12-15T09:09:34;68.22;;;29.60;;
75758;SDS011;64371;47.566;19.086;2022-12-15T09:12:37;70.45;;;30.20;;
75758;SDS011;64371;47.566;19.086;2022-12-15T09:15:39;67.85;;;29.98;;
75758;SDS011;64371;47.566;19.086;2022-12-15T09:19:04;61.90;;;26.03;;
75758;SDS011;64371;47.566;19.086;2022-12-15T09:22:06;68.90;;;27.02;;
75758;SDS011;64371;47.566;19.086;2022-12-15T09:25:08;61.90;;;28.00;;
75758;SDS011;64371;47.566;19.086;2022-12-15T09:28:12;64.03;;;26.35;;
75758;SDS011;64371;47.566;19.086;2022-12-15T09:31:16;62.00;;;26.70;;
75758;SDS011;64371;47.566;19.086;2022-12-15T09:34:23;67.67;;;27.27;;
75758;SDS011;64371;47.566;19.086;2022-12-15T09:37:26;66.13;;;27.23;;
75758;SDS011;64371;47.566;19.086;2022-12-15T09:40:29;63.45;;;26.50;;
75758;SDS011;64371;47.566;19.086;2022-12-15T09:43:31;66.13;;;27.48;;
75758;SDS011;64371;47.566;19.086;2022-12-15T09:50:22;57.73;;;21.50;;
75758;SDS011;64371;47.566;19.086;2022-12-15T09:53:28;68.90;;;27.33;;
75758;SDS011;64371;47.566;19.086;2022-12-15T09:56:54;70.93;;;29.92;;
75758;SDS011;64371;47.566;19.086;2022-12-15T10:00:05;69.03;;;29.77;;
75758;SDS011;64371;47.566;19.086;2022-12-15T10:06:32;72.70;;;29.77;;
75758;SDS011;64371;47.566;19.086;2022-12-15T10:09:39;67.68;;;26.45;;
75758;SDS011;64371;47.566;19.086;2022-12-15T10:12:42;67.57;;;28.80;;
75758;SDS011;64371;47.566;19.086;2022-12-15T10:16:04;64.38;;;28.58;;
75758;SDS011;64371;47.566;19.086;2022-12-15T10:19:16;61.95;;;27.23;;
75758;SDS011;64371;47.566;19.086;2022-12-15T10:22:29;64.07;;;24.90;;
75758;SDS011;64371;47.566;19.086;2022-12-15T10:25:35;68.15;;;28.77;;
75758;SDS011;64371;47.566;19.086;2022-12-15T10:28:43;67.63;;;26.63;;
75758;SDS011;64371;47.566;19.086;2022-12-15T10:31:59;62.95;;;25.95;;
75758;SDS011;64371;47.566;19.086;2022-12-15T10:35:13;61.08;;;23.73;;
75758;SDS011;64371;47.566;19.086;2022-12-15T10:38:52;64.50;;;25.07;;
75758;SDS011;64371;47.566;19.086;2022-12-15T10:45:30;71.45;;;28.38;;
75758;SDS011;64371;47.566;19.086;2022-12-15T10:48:39;66.45;;;27.05;;
75758;SDS011;64371;47.566;19.086;2022-12-15T10:51:46;68.82;;;27.70;;
75758;SDS011;64371;47.566;19.086;2022-12-15T10:54:58;69.33;;;27.40;;
75758;SDS011;64371;47.566;19.086;2022-12-15T10:58:01;72.65;;;28.08;;
75758;SDS011;64371;47.566;19.086;2022-12-15T11:01:06;72.15;;;27.67;;
75758;SDS011;64371;47.566;19.086;2022-12-15T11:04:28;75.57;;;28.90;;
75758;SDS011;64371;47.566;19.086;2022-12-15T11:10:55;72.40;;;29.70;;
75758;SDS011;64371;47.566;19.086;2022-12-15T11:14:18;66.43;;;26.88;;
75758;SDS011;64371;47.566;19.086;2022-12-15T11:17:27;62.22;;;23.88;;
75758;SDS011;64371;47.566;19.086;2022-12-15T11:20:46;62.28;;;24.95;;
75758;SDS011;64371;47.566;19.086;2022-12-15T11:24:15;65.18;;;25.95;;
75758;SDS011;64371;47.566;19.086;2022-12-15T11:27:32;66.23;;;26.80;;
75758;SDS011;64371;47.566;19.086;2022-12-15T11:30:46;55.30;;;21.88;;
75758;SDS011;64371;47.566;19.086;2022-12-15T11:33:55;61.33;;;23.75;;
75758;SDS011;64371;47.566;19.086;2022-12-15T11:37:13;50.65;;;18.60;;
75758;SDS011;64371;47.566;19.086;2022-12-15T11:40:41;58.95;;;22.60;;
75758;SDS011;64371;47.566;19.086;2022-12-15T11:44:02;59.77;;;23.13;;
75758;SDS011;64371;47.566;19.086;2022-12-15T11:47:26;63.03;;;25.10;;
75758;SDS011;64371;47.566;19.086;2022-12-15T11:50:32;61.55;;;22.65;;
75758;SDS011;64371;47.566;19.086;2022-12-15T12:00:29;64.33;;;24.63;;
75758;SDS011;64371;47.566;19.086;2022-12-15T12:17:54;67.17;;;25.20;;
75758;SDS011;64371;47.566;19.086;2022-12-15T12:21:05;68.03;;;25.67;;
75758;SDS011;64371;47.566;19.086;2022-12-15T12:27:27;65.88;;;26.40;;
75758;SDS011;64371;47.566;19.086;2022-12-15T12:30:38;67.55;;;26.65;;
75758;SDS011;64371;47.566;19.086;2022-12-15T12:33:46;65.27;;;25.67;;
75758;SDS011;64371;47.566;19.086;2022-12-15T12:36:53;65.97;;;25.73;;
75758;SDS011;64371;47.566;19.086;2022-12-15T12:43:39;72.68;;;28.30;;
75758;SDS011;64371;47.566;19.086;2022-12-15T12:46:51;72.10;;;28.02;;
75758;SDS011;64371;47.566;19.086;2022-12-15T12:49:58;67.87;;;25.83;;
75758;SDS011;64371;47.566;19.086;2022-12-15T12:53:17;74.25;;;26.52;;
75758;SDS011;64371;47.566;19.086;2022-12-15T12:59:38;79.22;;;29.45;;
75758;SDS011;64371;47.566;19.086;2022-12-15T13:02:46;77.93;;;29.10;;
75758;SDS011;64371;47.566;19.086;2022-12-15T13:05:51;80.73;;;29.77;;
75758;SDS011;64371;47.566;19.086;2022-12-15T13:08:55;82.00;;;31.33;;
75758;SDS011;64371;47.566;19.086;2022-12-15T13:11:57;69.00;;;26.92;;
75758;SDS011;64371;47.566;19.086;2022-12-15T13:15:28;82.90;;;31.27;;
75758;SDS011;64371;47.566;19.086;2022-12-15T13:21:58;60.33;;;25.17;;
75758;SDS011;64371;47.566;19.086;2022-12-15T13:25:03;75.85;;;26.73;;
75758;SDS011;64371;47.566;19.086;2022-12-15T13:31:45;71.35;;;28.40;;
75758;SDS011;64371;47.566;19.086;2022-12-15T13:34:50;71.88;;;26.25;;
75758;SDS011;64371;47.566;19.086;2022-12-15T13:37:53;69.43;;;25.77;;
75758;SDS011;64371;47.566;19.086;2022-12-15T13:40:59;69.00;;;26.73;;
75758;SDS011;64371;47.566;19.086;2022-12-15T13:44:06;71.13;;;27.90;;
75758;SDS011;64371;47.566;19.086;2022-12-15T13:47:21;70.72;;;27.83;;
75758;SDS011;64371;47.566;19.086;2022-12-15T13:50:39;72.35;;;27.35;;
75758;SDS011;64371;47.566;19.086;2022-12-15T13:53:57;76.17;;;27.83;;
75758;SDS011;64371;47.566;19.086;2022-12-15T13:57:03;69.22;;;26.45;;
75758;SDS011;64371;47.566;19.086;2022-12-15T14:00:12;77.50;;;30.15;;
75758;SDS011;64371;47.566;19.086;2022-12-15T14:03:22;75.13;;;29.33;;
75758;SDS011;64371;47.566;19.086;2022-12-15T14:06:27;69.28;;;29.25;;
75758;SDS011;64371;47.566;19.086;2022-12-15T14:09:38;77.23;;;30.23;;
75758;SDS011;64371;47.566;19.086;2022-12-15T14:12:43;76.85;;;30.67;;
75758;SDS011;64371;47.566;19.086;2022-12-15T14:15:51;76.28;;;30.85;;
75758;SDS011;64371;47.566;19.086;2022-12-15T14:22:16;69.30;;;28.17;;
75758;SDS011;64371;47.566;19.086;2022-12-15T14:25:28;70.43;;;26.33;;
75758;SDS011;64371;47.566;19.086;2022-12-15T14:28:32;76.95;;;30.95;;
75758;SDS011;64371;47.566;19.086;2022-12-15T14:31:36;69.03;;;28.80;;
75758;SDS011;64371;47.566;19.086;2022-12-15T14:34:39;76.68;;;32.20;;
75758;SDS011;64371;47.566;19.086;2022-12-15T14:37:42;77.72;;;30.20;;
75758;SDS011;64371;47.566;19.086;2022-12-15T14:40:46;76.17;;;29.40;;
75758;SDS011;64371;47.566;19.086;2022-12-15T14:43:56;76.05;;;30.98;;
75758;SDS011;64371;47.566;19.086;2022-12-15T14:47:26;76.32;;;31.92;;
75758;SDS011;64371;47.566;19.086;2022-12-15T14:50:31;79.57;;;29.65;;
75758;SDS011;64371;47.566;19.086;2022-12-15T14:53:35;71.97;;;30.45;;
75758;SDS011;64371;47.566;19.086;2022-12-15T14:56:39;83.17;;;32.13;;
75758;SDS011;64371;47.566;19.086;2022-12-15T14:59:42;73.68;;;29.75;;
75758;SDS011;64371;47.566;19.086;2022-12-15T15:02:46;83.25;;;33.05;;
75758;SDS011;64371;47.566;19.086;2022-12-15T15:05:58;83.28;;;34.45;;
75758;SDS011;64371;47.566;19.086;2022-12-15T15:12:39;72.27;;;29.70;;
75758;SDS011;64371;47.566;19.086;2022-12-15T15:15:54;68.25;;;28.38;;
75758;SDS011;64371;47.566;19.086;2022-12-15T15:19:01;73.95;;;28.98;;
75758;SDS011;64371;47.566;19.086;2022-12-15T15:22:11;66.80;;;25.70;;
75758;SDS011;64371;47.566;19.086;2022-12-15T15:25:37;68.18;;;28.70;;
75758;SDS011;64371;47.566;19.086;2022-12-15T15:28:42;74.97;;;28.77;;
75758;SDS011;64371;47.566;19.086;2022-12-15T15:31:45;87.68;;;37.53;;
75758;SDS011;64371;47.566;19.086;2022-12-15T15:34:53;73.38;;;30.27;;
75758;SDS011;64371;47.566;19.086;2022-12-15T15:37:58;70.82;;;30.02;;
75758;SDS011;64371;47.566;19.086;2022-12-15T15:41:48;76.72;;;31.38;;
75758;SDS011;64371;47.566;19.086;2022-12-15T15:44:32;76.43;;;30.83;;
75758;SDS011;64371;47.566;19.086;2022-12-15T15:47:41;73.47;;;30.02;;
75758;SDS011;64371;47.566;19.086;2022-12-15T15:50:48;76.97;;;29.35;;
75758;SDS011;64371;47.566;19.086;2022-12-15T15:53:51;69.90;;;28.52;;
75758;SDS011;64371;47.566;19.086;2022-12-15T15:56:56;84.55;;;33.88;;
75758;SDS011;64371;47.566;19.086;2022-12-15T15:59:59;77.30;;;30.57;;
75758;SDS011;64371;47.566;19.086;2022-12-15T16:03:02;76.22;;;30.48;;
75758;SDS011;64371;47.566;19.086;2022-12-15T16:06:05;79.03;;;31.27;;
75758;SDS011;64371;47.566;19.086;2022-12-15T16:09:19;77.90;;;30.45;;
75758;SDS011;64371;47.566;19.086;2022-12-15T16:12:23;77.10;;;32.38;;
75758;SDS011;64371;47.566;19.086;2022-12-15T16:15:29;78.00;;;31.13;;
75758;SDS011;64371;47.566;19.086;2022-12-15T16:18:35;83.75;;;31.85;;
75758;SDS011;64371;47.566;19.086;2022-12-15T16:21:37;75.20;;;31.10;;
75758;SDS011;64371;47.566;19.086;2022-12-15T16:24:41;72.05;;;29.85;;
75758;SDS011;64371;47.566;19.086;2022-12-15T16:27:44;70.18;;;29.25;;
75758;SDS011;64371;47.566;19.086;2022-12-15T16:30:46;73.90;;;29.93;;
75758;SDS011;64371;47.566;19.086;2022-12-15T16:33:49;73.55;;;29.45;;
75758;SDS011;64371;47.566;19.086;2022-12-15T16:36:52;78.53;;;29.67;;
75758;SDS011;64371;47.566;19.086;2022-12-15T16:39:54;76.40;;;30.42;;
75758;SDS011;64371;47.566;19.086;2022-12-15T16:42:58;70.15;;;28.40;;
75758;SDS011;64371;47.566;19.086;2022-12-15T16:46:01;72.23;;;29.33;;
75758;SDS011;64371;47.566;19.086;2022-12-15T16:49:04;65.25;;;26.60;;
75758;SDS011;64371;47.566;19.086;2022-12-15T16:52:09;66.97;;;29.08;;
75758;SDS011;64371;47.566;19.086;2022-12-15T16:55:22;69.35;;;28.35;;
75758;SDS011;64371;47.566;19.086;2022-12-15T16:58:26;74.47;;;30.58;;
75758;SDS011;64371;47.566;19.086;2022-12-15T17:01:30;70.97;;;30.00;;
75758;SDS011;64371;47.566;19.086;2022-12-15T17:04:40;65.32;;;28.05;;
75758;SDS011;64371;47.566;19.086;2022-12-15T17:07:44;62.08;;;26.25;;
75758;SDS011;64371;47.566;19.086;2022-12-15T17:10:51;66.28;;;27.05;;
75758;SDS011;64371;47.566;19.086;2022-12-15T17:13:55;55.65;;;23.90;;
75758;SDS011;64371;47.566;19.086;2022-12-15T17:16:58;60.63;;;23.80;;
75758;SDS011;64371;47.566;19.086;2022-12-15T17:20:00;53.03;;;23.40;;
75758;SDS011;64371;47.566;19.086;2022-12-15T17:23:23;57.70;;;23.90;;
75758;SDS011;64371;47.566;19.086;2022-12-15T17:26:26;62.08;;;25.30;;
75758;SDS011;64371;47.566;19.086;2022-12-15T17:29:31;58.63;;;26.58;;
75758;SDS011;64371;47.566;19.086;2022-12-15T17:32:34;54.70;;;20.97;;
75758;SDS011;64371;47.566;19.086;2022-12-15T17:35:36;59.88;;;26.20;;
75758;SDS011;64371;47.566;19.086;2022-12-15T17:38:38;64.75;;;27.58;;
75758;SDS011;64371;47.566;19.086;2022-12-15T17:41:41;65.22;;;27.88;;
75758;SDS011;64371;47.566;19.086;2022-12-15T17:45:01;47.67;;;21.33;;
75758;SDS011;64371;47.566;19.086;2022-12-15T17:48:03;58.80;;;25.13;;
75758;SDS011;64371;47.566;19.086;2022-12-15T17:51:09;53.85;;;25.55;;
75758;SDS011;64371;47.566;19.086;2022-12-15T17:54:18;60.13;;;25.30;;
75758;SDS011;64371;47.566;19.086;2022-12-15T17:57:21;57.95;;;24.63;;
75758;SDS011;64371;47.566;19.086;2022-12-15T18:00:24;55.67;;;24.65;;
75758;SDS011;64371;47.566;19.086;2022-12-15T18:03:29;55.03;;;22.97;;
75758;SDS011;64371;47.566;19.086;2022-12-15T18:06:32;57.47;;;24.67;;
75758;SDS011;64371;47.566;19.086;2022-12-15T18:09:35;51.65;;;22.50;;
75758;SDS011;64371;47.566;19.086;2022-12-15T18:12:37;61.00;;;25.95;;
75758;SDS011;64371;47.566;19.086;2022-12-15T18:15:39;53.33;;;23.13;;
75758;SDS011;64371;47.566;19.086;2022-12-15T18:18:42;55.97;;;24.07;;
75758;SDS011;64371;47.566;19.086;2022-12-15T18:21:44;55.95;;;25.48;;
75758;SDS011;64371;47.566;19.086;2022-12-15T18:24:47;60.90;;;26.35;;
75758;SDS011;64371;47.566;19.086;2022-12-15T18:27:54;64.65;;;26.65;;
75758;SDS011;64371;47.566;19.086;2022-12-15T18:30:59;60.85;;;25.95;;
75758;SDS011;64371;47.566;19.086;2022-12-15T18:34:15;52.07;;;23.00;;
75758;SDS011;64371;47.566;19.086;2022-12-15T18:37:20;65.35;;;27.13;;
75758;SDS011;64371;47.566;19.086;2022-12-15T18:40:25;59.17;;;24.65;;
75758;SDS011;64371;47.566;19.086;2022-12-15T18:43:31;51.70;;;22.80;;
75758;SDS011;64371;47.566;19.086;2022-12-15T18:46:35;52.17;;;22.85;;
75758;SDS011;64371;47.566;19.086;2022-12-15T18:49:37;54.83;;;23.87;;
75758;SDS011;64371;47.566;19.086;2022-12-15T18:52:39;56.05;;;25.45;;
75758;SDS011;64371;47.566;19.086;2022-12-15T18:55:42;58.38;;;26.88;;
75758;SDS011;64371;47.566;19.086;2022-12-15T18:58:44;54.45;;;24.67;;
75758;SDS011;64371;47.566;19.086;2022-12-15T19:01:47;54.58;;;24.83;;
75758;SDS011;64371;47.566;19.086;2022-12-15T19:04:50;58.30;;;26.30;;
75758;SDS011;64371;47.566;19.086;2022-12-15T19:07:56;56.42;;;25.92;;
75758;SDS011;64371;47.566;19.086;2022-12-15T19:11:03;65.72;;;27.35;;
75758;SDS011;64371;47.566;19.086;2022-12-15T19:14:06;65.90;;;28.35;;
75758;SDS011;64371;47.566;19.086;2022-12-15T19:17:35;64.72;;;26.30;;
75758;SDS011;64371;47.566;19.086;2022-12-15T19:20:56;62.00;;;27.10;;
75758;SDS011;64371;47.566;19.086;2022-12-15T19:24:35;64.53;;;28.80;;
75758;SDS011;64371;47.566;19.086;2022-12-15T19:27:56;64.13;;;26.63;;
75758;SDS011;64371;47.566;19.086;2022-12-15T19:31:00;58.72;;;24.92;;
75758;SDS011;64371;47.566;19.086;2022-12-15T19:34:03;54.70;;;23.50;;
75758;SDS011;64371;47.566;19.086;2022-12-15T19:37:06;55.67;;;23.77;;
75758;SDS011;64371;47.566;19.086;2022-12-15T19:40:16;56.55;;;24.75;;
75758;SDS011;64371;47.566;19.086;2022-12-15T19:43:23;56.25;;;25.58;;
75758;SDS011;64371;47.566;19.086;2022-12-15T19:46:26;59.25;;;24.48;;
75758;SDS011;64371;47.566;19.086;2022-12-15T19:49:28;54.78;;;25.65;;
75758;SDS011;64371;47.566;19.086;2022-12-15T19:52:30;55.30;;;24.37;;
75758;SDS011;64371;47.566;19.086;2022-12-15T19:55:33;56.55;;;25.40;;
75758;SDS011;64371;47.566;19.086;2022-12-15T19:58:37;58.60;;;24.88;;
75758;SDS011;64371;47.566;19.086;2022-12-15T20:01:39;57.78;;;24.65;;
75758;SDS011;64371;47.566;19.086;2022-12-15T20:04:42;50.65;;;23.02;;
75758;SDS011;64371;47.566;19.086;2022-12-15T20:07:44;56.17;;;24.40;;
75758;SDS011;64371;47.566;19.086;2022-12-15T20:10:48;52.03;;;23.15;;
75758;SDS011;64371;47.566;19.086;2022-12-15T20:13:51;48.95;;;22.58;;
75758;SDS011;64371;47.566;19.086;2022-12-15T20:16:54;49.33;;;23.73;;
75758;SDS011;64371;47.566;19.086;2022-12-15T20:19:56;50.08;;;23.35;;
75758;SDS011;64371;47.566;19.086;2022-12-15T20:23:00;48.17;;;23.37;;
75758;SDS011;64371;47.566;19.086;2022-12-15T20:26:06;49.90;;;23.65;;
75758;SDS011;64371;47.566;19.086;2022-12-15T20:29:27;48.42;;;22.38;;
75758;SDS011;64371;47.566;19.086;2022-12-15T20:32:31;47.85;;;24.45;;
75758;SDS011;64371;47.566;19.086;2022-12-15T20:35:39;40.85;;;19.50;;
75758;SDS011;64371;47.566;19.086;2022-12-15T20:38:43;42.90;;;19.63;;
75758;SDS011;64371;47.566;19.086;2022-12-15T20:41:46;38.80;;;18.40;;
75758;SDS011;64371;47.566;19.086;2022-12-15T20:44:49;37.33;;;17.65;;
75758;SDS011;64371;47.566;19.086;2022-12-15T20:47:53;38.70;;;18.85;;
75758;SDS011;64371;47.566;19.086;2022-12-15T20:50:56;37.53;;;17.65;;
75758;SDS011;64371;47.566;19.086;2022-12-15T20:54:00;33.07;;;16.40;;
75758;SDS011;64371;47.566;19.086;2022-12-15T20:57:03;33.17;;;16.52;;
75758;SDS011;64371;47.566;19.086;2022-12-15T21:00:06;31.30;;;16.33;;
75758;SDS011;64371;47.566;19.086;2022-12-15T21:03:25;34.63;;;16.13;;
75758;SDS011;64371;47.566;19.086;2022-12-15T21:06:34;32.10;;;15.52;;
75758;SDS011;64371;47.566;19.086;2022-12-15T21:09:37;30.47;;;15.47;;
75758;SDS011;64371;47.566;19.086;2022-12-15T21:12:40;30.20;;;15.38;;
75758;SDS011;64371;47.566;19.086;2022-12-15T21:15:44;29.65;;;14.25;;
75758;SDS011;64371;47.566;19.086;2022-12-15T21:18:50;30.05;;;14.80;;
75758;SDS011;64371;47.566;19.086;2022-12-15T21:22:19;31.02;;;15.45;;
75758;SDS011;64371;47.566;19.086;2022-12-15T21:25:27;28.00;;;14.53;;
75758;SDS011;64371;47.566;19.086;2022-12-15T21:28:30;28.45;;;14.10;;
75758;SDS011;64371;47.566;19.086;2022-12-15T21:31:33;29.23;;;15.10;;
75758;SDS011;64371;47.566;19.086;2022-12-15T21:34:36;27.63;;;13.60;;
75758;SDS011;64371;47.566;19.086;2022-12-15T21:37:38;30.48;;;14.38;;
75758;SDS011;64371;47.566;19.086;2022-12-15T21:40:41;30.17;;;14.83;;
75758;SDS011;64371;47.566;19.086;2022-12-15T21:43:43;32.47;;;17.15;;
75758;SDS011;64371;47.566;19.086;2022-12-15T21:46:46;31.17;;;16.38;;
75758;SDS011;64371;47.566;19.086;2022-12-15T21:49:48;30.98;;;15.27;;
75758;SDS011;64371;47.566;19.086;2022-12-15T21:52:51;31.73;;;16.25;;
75758;SDS011;64371;47.566;19.086;2022-12-15T21:55:55;32.87;;;16.80;;
75758;SDS011;64371;47.566;19.086;2022-12-15T21:59:00;31.90;;;16.52;;
75758;SDS011;64371;47.566;19.086;2022-12-15T22:02:23;34.85;;;16.35;;
75758;SDS011;64371;47.566;19.086;2022-12-15T22:05:27;31.30;;;15.45;;
75758;SDS011;64371;47.566;19.086;2022-12-15T22:08:33;31.30;;;15.23;;
75758;SDS011;64371;47.566;19.086;2022-12-15T22:11:36;26.80;;;13.90;;
75758;SDS011;64371;47.566;19.086;2022-12-15T22:14:40;32.08;;;15.07;;
75758;SDS011;64371;47.566;19.086;2022-12-15T22:17:43;27.42;;;14.15;;
75758;SDS011;64371;47.566;19.086;2022-12-15T22:20:45;26.33;;;13.20;;
75758;SDS011;64371;47.566;19.086;2022-12-15T22:23:49;25.65;;;13.38;;
75758;SDS011;64371;47.566;19.086;2022-12-15T22:26:52;24.43;;;12.43;;
75758;SDS011;64371;47.566;19.086;2022-12-15T22:29:55;25.75;;;13.18;;
75758;SDS011;64371;47.566;19.086;2022-12-15T22:32:58;28.20;;;13.75;;
75758;SDS011;64371;47.566;19.086;2022-12-15T22:36:00;27.00;;;13.02;;
75758;SDS011;64371;47.566;19.086;2022-12-15T22:39:02;28.75;;;12.70;;
75758;SDS011;64371;47.566;19.086;2022-12-15T22:42:15;27.93;;;12.80;;
75758;SDS011;64371;47.566;19.086;2022-12-15T22:45:18;25.90;;;11.60;;
75758;SDS011;64371;47.566;19.086;2022-12-15T22:48:28;33.78;;;13.57;;
75758;SDS011;64371;47.566;19.086;2022-12-15T22:51:35;26.88;;;12.55;;
75758;SDS011;64371;47.566;19.086;2022-12-15T22:54:37;32.42;;;13.75;;
75758;SDS011;64371;47.566;19.086;2022-12-15T22:58:05;32.87;;;13.53;;
75758;SDS011;64371;47.566;19.086;2022-12-15T23:01:11;31.60;;;13.52;;
75758;SDS011;64371;47.566;19.086;2022-12-15T23:04:13;29.75;;;12.40;;
75758;SDS011;64371;47.566;19.086;2022-12-15T23:07:16;33.30;;;12.88;;
75758;SDS011;64371;47.566;19.086;2022-12-15T23:10:18;30.95;;;11.93;;
75758;SDS011;64371;47.566;19.086;2022-12-15T23:13:40;27.97;;;12.70;;
75758;SDS011;64371;47.566;19.086;2022-12-15T23:16:43;32.40;;;13.35;;
75758;SDS011;64371;47.566;19.086;2022-12-15T23:19:47;29.67;;;12.68;;
75758;SDS011;64371;47.566;19.086;2022-12-15T23:22:49;35.83;;;12.07;;
75758;SDS011;64371;47.566;19.086;2022-12-15T23:25:52;32.53;;;13.15;;
75758;SDS011;64371;47.566;19.086;2022-12-15T23:28:56;29.63;;;12.07;;
75758;SDS011;64371;47.566;19.086;2022-12-15T23:31:58;29.08;;;12.82;;
75758;SDS011;64371;47.566;19.086;2022-12-15T23:35:00;33.22;;;13.80;;
75758;SDS011;64371;47.566;19.086;2022-12-15T23:38:03;32.28;;;12.93;;
75758;SDS011;64371;47.566;19.086;2022-12-15T23:41:05;32.75;;;13.43;;
75758;SDS011;64371;47.566;19.086;2022-12-15T23:44:08;29.33;;;12.30;;
75758;SDS011;64371;47.566;19.086;2022-12-15T23:47:13;31.10;;;12.77;;
75758;SDS011;64371;47.566;19.086;2022-12-15T23:50:15;29.35;;;12.40;;
75758;SDS011;64371;47.566;19.086;2022-12-15T23:53:19;30.85;;;12.50;;
75758;SDS011;64371;47.566;19.086;2022-12-15T23:56:22;32.90;;;13.60;;
75758;SDS011;64371;47.566;19.086;2022-12-15T23:59:25;33.77;;;12.00;;
